Time;durP1;ratioP1;P1;durP2;ratioP2;P2;SDS_P1;SDS_P2;PMS_P1;PMS_P2;Temp;Humidity;BMP_temperature;BMP_pressure;BME280_temperature;BME280_humidity;BME280_pressure;Samples;Min_cycle;Max_cycle;Signal;HPM_P1;HPM_P2
2022/04/21 00:02:14;;;;;;;14.43;6.53;;;;;;;11.06;72.48;101369.19;5015737;28;20032;-40
2022/04/21 00:04:39;;;;;;;14.43;6.35;;;;;;;11.08;73.13;101361.88;5017862;28;20017;-44
2022/04/21 00:07:05;;;;;;;9.35;5.80;;;;;;;11.04;72.25;101364.00;5018486;28;20472;-41
2022/04/21 00:09:30;;;;;;;13.60;5.82;;;;;;;11.00;73.21;101363.47;5017220;28;20025;-42
2022/04/21 00:11:55;;;;;;;9.18;5.60;;;;;;;10.95;72.38;101352.41;5000377;28;20629;-42
2022/04/21 00:14:21;;;;;;;11.43;5.68;;;;;;;10.94;73.46;101355.22;5014849;28;20083;-40
2022/04/21 00:16:46;;;;;;;11.73;5.38;;;;;;;10.90;72.59;101352.00;5012542;28;20156;-42
2022/04/21 00:19:12;;;;;;;12.23;5.85;;;;;;;10.86;73.82;101355.13;4995521;28;20775;-42
2022/04/21 00:24:21;;;;;;;7.85;5.40;;;;;;;10.79;73.45;101355.75;5016758;28;20033;-41
2022/04/21 00:26:47;;;;;;;14.15;5.75;;;;;;;10.74;73.55;101357.16;5018253;28;20380;-42
2022/04/21 00:29:13;;;;;;;13.50;5.57;;;;;;;10.70;73.47;101364.63;5016583;28;20033;-43
2022/04/21 00:31:39;;;;;;;10.52;6.35;;;;;;;10.63;73.79;101359.03;5015251;28;20120;-41
2022/04/21 00:34:04;;;;;;;11.90;6.00;;;;;;;10.57;74.45;101353.47;5015956;28;20108;-43
2022/04/21 00:36:29;;;;;;;11.02;5.82;;;;;;;10.55;75.42;101355.44;5017542;28;20025;-41
2022/04/21 00:38:54;;;;;;;10.73;6.47;;;;;;;10.52;75.84;101358.41;5017441;28;20403;-42
2022/04/21 00:41:20;;;;;;;11.40;6.35;;;;;;;10.51;77.14;101362.09;5017853;28;20032;-41
2022/04/21 00:43:45;;;;;;;10.98;6.55;;;;;;;10.40;75.21;101350.59;5010313;28;20072;-43
2022/04/21 00:46:18;;;;;;;10.82;6.07;;;;;;;10.37;76.56;101353.56;5015419;28;20041;-42
2022/04/21 00:48:45;;;;;;;10.65;5.93;;;;;;;10.31;75.85;101350.59;5001289;28;20017;-40
2022/04/21 00:51:10;;;;;;;12.27;6.57;;;;;;;10.28;77.93;101346.38;4998508;28;20446;-39
2022/04/21 00:53:37;;;;;;;10.48;6.25;;;;;;;10.25;77.85;101349.34;5003262;28;20061;-43
2022/04/21 00:56:03;;;;;;;12.40;6.47;;;;;;;10.24;77.64;101342.34;5003641;28;20061;-41
2022/04/21 00:58:29;;;;;;;12.80;6.70;;;;;;;10.19;76.81;101348.13;4998130;28;20108;-41
2022/04/21 01:00:54;;;;;;;15.35;6.70;;;;;;;10.17;78.02;101350.09;4998014;28;20034;-40
2022/04/21 01:03:20;;;;;;;12.02;6.75;;;;;;;10.12;78.27;101349.69;5001801;28;20028;-40
2022/04/21 01:05:47;;;;;;;10.50;6.40;;;;;;;10.03;78.73;101354.06;5017471;28;20029;-43
2022/04/21 01:08:13;;;;;;;11.77;6.57;;;;;;;9.99;77.86;101352.66;5016223;28;20184;-43
2022/04/21 01:10:41;;;;;;;13.38;6.97;;;;;;;9.96;78.47;101352.97;5017072;28;20773;-40
2022/04/21 01:13:17;;;;;;;13.02;7.03;;;;;;;9.94;78.67;101351.44;5018660;28;20041;-41
2022/04/21 01:15:43;;;;;;;11.27;6.85;;;;;;;9.93;80.59;101350.59;5010767;28;20026;-41
2022/04/21 01:18:09;;;;;;;15.45;7.43;;;;;;;9.87;80.04;101344.00;5016474;28;20088;-41
2022/04/21 01:20:34;;;;;;;13.23;6.50;;;;;;;9.87;79.71;101345.81;5005733;28;20191;-41
2022/04/21 01:23:00;;;;;;;17.80;6.97;;;;;;;9.87;80.13;101341.31;5013632;28;20132;-42
2022/04/21 01:25:25;;;;;;;11.73;6.93;;;;;;;9.84;79.87;101351.44;5006519;28;20026;-42
2022/04/21 01:27:54;;;;;;;15.35;7.00;;;;;;;9.77;79.74;101335.16;5004347;28;20112;-42
2022/04/21 01:30:20;;;;;;;12.20;6.70;;;;;;;9.76;79.59;101341.50;4995425;28;20434;-42
2022/04/21 01:32:48;;;;;;;12.35;6.63;;;;;;;9.69;79.30;101341.25;4998192;28;20030;-42
2022/04/21 01:35:13;;;;;;;15.23;6.70;;;;;;;9.69;80.30;101335.03;5016415;28;20025;-42
2022/04/21 01:43:08;;;;;;;11.95;7.03;;;;;;;9.59;81.87;101328.88;5020575;28;20052;-41
2022/04/21 01:45:34;;;;;;;10.45;6.35;;;;;;;9.55;80.91;101328.31;5021601;28;20033;-41
2022/04/21 01:47:59;;;;;;;11.70;7.03;;;;;;;9.57;81.67;101329.03;5010972;28;20033;-41
2022/04/21 01:50:25;;;;;;;13.63;6.72;;;;;;;9.46;79.82;101330.03;5020170;28;20029;-42
2022/04/21 01:52:51;;;;;;;14.25;6.95;;;;;;;9.46;81.74;101314.03;5000068;28;20026;-42
2022/04/21 01:55:17;;;;;;;12.32;6.78;;;;;;;9.44;81.09;101321.34;5001165;28;20388;-43
2022/04/21 01:57:42;;;;;;;15.68;7.28;;;;;;;9.42;81.56;101322.44;5012483;28;20676;-42
2022/04/21 02:00:08;;;;;;;12.68;7.05;;;;;;;9.36;81.51;101331.03;5009377;28;20048;-43
2022/04/21 02:02:33;;;;;;;10.70;6.88;;;;;;;9.34;82.35;101332.00;5008657;28;20022;-42
2022/04/21 02:05:00;;;;;;;14.30;7.20;;;;;;;9.30;81.78;101330.63;5018731;28;20030;-41
2022/04/21 02:07:26;;;;;;;15.25;7.07;;;;;;;9.32;83.23;101325.16;5019897;28;20013;-41
2022/04/21 02:09:51;;;;;;;14.43;7.13;;;;;;;9.29;82.92;101323.59;5021540;28;20745;-42
2022/04/21 02:12:17;;;;;;;10.73;7.07;;;;;;;9.27;82.71;101325.56;5019167;28;20019;-42
2022/04/21 02:14:42;;;;;;;14.55;7.50;;;;;;;9.25;83.13;101324.88;5009518;28;20026;-41
2022/04/21 02:17:08;;;;;;;12.00;7.45;;;;;;;9.22;83.93;101322.47;5000629;28;20033;-43
2022/04/21 02:19:33;;;;;;;11.90;7.03;;;;;;;9.16;83.09;101320.34;5008709;28;20045;-42
2022/04/21 02:21:58;;;;;;;12.30;7.40;;;;;;;9.15;83.26;101324.03;5015931;28;20037;-40
2022/04/21 02:24:24;;;;;;;12.02;7.82;;;;;;;9.13;82.87;101320.63;4999761;28;20018;-42
2022/04/21 02:26:50;;;;;;;19.27;7.55;;;;;;;9.05;82.98;101326.69;5000909;28;20188;-41
2022/04/21 02:29:15;;;;;;;10.10;7.20;;;;;;;9.05;83.53;101329.34;5011288;28;20120;-40
2022/04/21 02:31:40;;;;;;;12.40;7.30;;;;;;;9.03;82.62;101323.31;5018161;28;20044;-42
2022/04/21 02:34:05;;;;;;;14.82;7.28;;;;;;;9.01;82.99;101319.91;5013365;28;20030;-41
2022/04/21 02:36:31;;;;;;;11.98;6.85;;;;;;;8.96;82.47;101322.16;5000742;28;20030;-40
2022/04/21 02:38:56;;;;;;;10.85;7.00;;;;;;;8.92;82.53;101326.09;5006442;28;20052;-40
2022/04/21 02:41:21;;;;;;;15.00;6.45;;;;;;;8.91;82.05;101325.25;5020555;28;20029;-40
2022/04/21 02:43:46;;;;;;;11.02;6.28;;;;;;;8.87;82.20;101326.50;5019606;28;20808;-42
2022/04/21 02:46:13;;;;;;;11.23;7.22;;;;;;;8.86;82.25;101323.97;5019704;28;20085;-43
2022/04/21 02:48:39;;;;;;;13.32;6.93;;;;;;;8.86;82.25;101316.84;5017593;28;20091;-42
2022/04/21 02:51:04;;;;;;;13.73;7.00;;;;;;;8.83;82.16;101322.44;5015877;28;20037;-41
2022/04/21 02:59:00;;;;;;;15.15;7.10;;;;;;;8.78;81.95;101327.34;5003481;28;20067;-43
2022/04/21 03:01:26;;;;;;;11.73;6.57;;;;;;;8.75;82.71;101325.78;5009630;28;20018;-42
2022/04/21 03:03:51;;;;;;;10.00;6.90;;;;;;;8.71;82.39;101323.56;5012217;28;20020;-43
2022/04/21 03:06:16;;;;;;;12.10;6.53;;;;;;;8.69;82.40;101322.81;5017704;28;20708;-40
2022/04/21 03:08:41;;;;;;;12.73;6.55;;;;;;;8.63;82.32;101318.91;4999234;28;20066;-43
2022/04/21 03:11:07;;;;;;;12.27;6.70;;;;;;;8.58;81.17;101321.97;4998296;28;20036;-46
2022/04/21 03:13:32;;;;;;;13.00;7.07;;;;;;;8.59;81.43;101315.66;5015996;28;20029;-42
2022/04/21 03:15:57;;;;;;;11.98;6.90;;;;;;;8.58;82.07;101310.47;5016961;28;20493;-41
2022/04/21 03:18:23;;;;;;;13.80;6.50;;;;;;;8.56;81.46;101317.78;5016059;28;20021;-42
2022/04/21 03:26:17;;;;;;;12.27;6.88;;;;;;;8.45;81.73;101310.72;5012272;28;20208;-40
2022/04/21 03:28:43;;;;;;;11.13;6.85;;;;;;;8.47;82.10;101324.75;4999620;28;20132;-41
2022/04/21 03:31:09;;;;;;;12.98;6.53;;;;;;;8.46;82.58;101316.91;5008721;28;20025;-41
2022/04/21 03:33:34;;;;;;;10.00;6.95;;;;;;;8.42;81.11;101316.31;5015800;28;20407;-42
2022/04/21 03:35:59;;;;;;;16.50;6.63;;;;;;;8.45;81.56;101310.72;5017160;28;20091;-44
2022/04/21 03:38:25;;;;;;;10.63;6.88;;;;;;;8.44;81.69;101310.88;5008532;28;20412;-41
2022/04/21 03:40:50;;;;;;;10.25;6.82;;;;;;;8.45;82.14;101312.53;5017158;28;20036;-41
2022/04/21 03:43:15;;;;;;;14.38;7.10;;;;;;;8.44;81.68;101309.06;5002717;28;20034;-42
2022/04/21 03:45:41;;;;;;;11.63;6.63;;;;;;;8.39;81.13;101317.41;4997194;28;20022;-42
2022/04/21 03:48:06;;;;;;;12.05;6.82;;;;;;;8.40;81.91;101319.09;4997148;28;20021;-42
2022/04/21 03:50:34;;;;;;;13.98;6.43;;;;;;;8.39;81.41;101324.56;4996164;28;20525;-41
2022/04/21 03:52:59;;;;;;;14.23;6.68;;;;;;;8.37;82.44;101321.19;5008644;28;20045;-43
2022/04/21 03:55:25;;;;;;;15.95;6.85;;;;;;;8.35;82.27;101315.13;5010666;28;20392;-42
2022/04/21 03:57:51;;;;;;;12.20;7.00;;;;;;;8.32;82.25;101313.59;4999015;28;20029;-41
2022/04/21 04:00:16;;;;;;;10.52;6.80;;;;;;;8.33;82.04;101319.75;5001591;28;20033;-40
2022/04/21 04:02:41;;;;;;;10.20;6.50;;;;;;;8.33;81.55;101333.06;5014135;28;20038;-44
2022/04/21 04:05:07;;;;;;;10.18;6.18;;;;;;;8.32;81.84;101328.72;5001587;28;20040;-45
2022/04/21 04:13:00;;;;;;;9.23;6.28;;;;;;;8.26;81.54;101330.09;5007807;28;20444;-41
2022/04/21 04:15:25;;;;;;;17.33;6.53;;;;;;;8.27;81.94;101325.63;4999723;28;20029;-45
2022/04/21 04:17:51;;;;;;;12.98;6.88;;;;;;;8.28;82.09;101325.50;4995216;28;20618;-43
2022/04/21 04:20:16;;;;;;;13.93;6.57;;;;;;;8.27;81.86;101329.13;4996473;28;20041;-43
2022/04/21 04:22:42;;;;;;;16.75;6.50;;;;;;;8.24;82.14;101324.06;4997228;28;20025;-42
2022/04/21 04:25:10;;;;;;;14.68;6.47;;;;;;;8.22;82.59;101328.69;4996967;28;20026;-44
2022/04/21 04:27:36;;;;;;;11.07;7.13;;;;;;;8.19;81.72;101324.47;5012059;28;20190;-43
2022/04/21 04:30:07;;;;;;;10.65;6.03;;;;;;;8.18;81.79;101321.94;4998010;28;20041;-46
2022/04/21 04:32:33;;;;;;;10.93;6.53;;;;;;;8.17;82.56;101325.59;4995765;28;20018;-44
2022/04/21 04:34:58;;;;;;;14.75;6.90;;;;;;;8.12;81.31;101320.66;5005633;28;20035;-45
2022/04/21 04:37:23;;;;;;;15.88;7.22;;;;;;;8.13;82.19;101330.34;5009290;28;20448;-45
2022/04/21 04:39:49;;;;;;;13.48;6.78;;;;;;;8.12;82.04;101336.63;5016724;28;20030;-43
2022/04/21 04:42:17;;;;;;;11.57;6.90;;;;;;;8.14;82.15;101332.00;5016485;28;20559;-45
2022/04/21 04:44:43;;;;;;;13.07;6.82;;;;;;;8.12;82.49;101330.47;5001800;28;20017;-42
2022/04/21 04:47:09;;;;;;;13.18;7.07;;;;;;;8.15;83.08;101332.88;4995461;28;20030;-43
2022/04/21 04:49:34;;;;;;;14.10;6.88;;;;;;;8.17;82.44;101333.56;4996355;28;20229;-43
2022/04/21 04:51:59;;;;;;;10.15;6.47;;;;;;;8.14;81.87;101324.03;4997393;28;20014;-45
2022/04/21 04:54:25;;;;;;;12.85;7.03;;;;;;;8.15;81.90;101335.53;5005657;28;20057;-46
2022/04/21 04:56:51;;;;;;;16.92;6.72;;;;;;;8.12;82.01;101338.44;5016711;28;20079;-43
2022/04/21 04:59:16;;;;;;;19.48;7.10;;;;;;;8.11;82.20;101334.97;5016106;28;20465;-44
2022/04/21 05:01:45;;;;;;;14.75;7.22;;;;;;;8.10;82.58;101335.91;5014962;28;20087;-43
2022/04/21 05:04:15;;;;;;;16.70;8.05;;;;;;;8.07;82.57;101336.19;5012450;28;20467;-45
2022/04/21 05:06:52;;;;;;;12.55;7.20;;;;;;;8.09;82.38;101344.88;5019395;28;20234;-43
2022/04/21 05:09:22;;;;;;;20.45;7.68;;;;;;;8.13;83.94;101334.78;5019497;28;20056;-44
2022/04/21 05:11:53;;;;;;;18.40;7.78;;;;;;;8.09;84.16;101336.88;5017748;28;20396;-47
2022/04/21 05:14:18;;;;;;;11.77;6.82;;;;;;;8.10;83.78;101335.91;5001942;28;20044;-45
2022/04/21 05:16:44;;;;;;;15.88;7.43;;;;;;;8.12;84.72;101339.28;5015662;28;20022;-44
2022/04/21 05:19:10;;;;;;;14.63;7.95;;;;;;;8.13;84.87;101340.13;4998788;28;20030;-46
2022/04/21 05:21:37;;;;;;;11.20;7.63;;;;;;;8.12;83.98;101338.44;5010419;28;20410;-44
2022/04/21 05:24:04;;;;;;;14.07;8.73;;;;;;;8.18;85.08;101335.22;5020384;28;20033;-44
2022/04/21 05:26:31;;;;;;;19.45;7.97;;;;;;;8.19;84.55;101332.44;5020097;28;20068;-43
2022/04/21 05:28:58;;;;;;;18.13;7.93;;;;;;;8.20;84.61;101339.47;4999942;28;20030;-42
2022/04/21 05:31:26;;;;;;;15.82;8.50;;;;;;;8.22;85.34;101336.69;5006492;28;20495;-43
2022/04/21 05:33:52;;;;;;;14.10;7.93;;;;;;;8.24;84.85;101339.19;4991105;28;20037;-43
2022/04/21 05:36:17;;;;;;;13.18;8.02;;;;;;;8.31;86.13;101330.53;5018074;28;20040;-45
2022/04/21 05:38:43;;;;;;;17.30;8.00;;;;;;;8.36;86.12;101335.47;5000061;28;20073;-45
2022/04/21 05:41:09;;;;;;;15.18;7.93;;;;;;;8.42;86.20;101337.59;5017024;28;20025;-43
2022/04/21 05:43:43;;;;;;;14.13;8.18;;;;;;;8.45;85.18;101339.16;5010497;28;20381;-45
2022/04/21 05:46:10;;;;;;;17.02;8.02;;;;;;;8.47;85.97;101342.53;5005278;28;20033;-47
2022/04/21 05:48:37;;;;;;;15.45;8.35;;;;;;;8.50;86.26;101340.47;5018764;28;20060;-43
2022/04/21 05:51:04;;;;;;;14.18;8.45;;;;;;;8.52;86.66;101343.81;5021572;28;20029;-44
2022/04/21 05:53:34;;;;;;;14.07;8.52;;;;;;;8.51;85.34;101338.63;5020648;28;20026;-44
2022/04/21 05:56:00;;;;;;;13.40;8.25;;;;;;;8.47;85.98;101338.06;5016338;28;20481;-45
2022/04/21 05:58:27;;;;;;;12.23;8.77;;;;;;;8.54;86.66;101338.38;5018925;28;20179;-45
2022/04/21 06:00:52;;;;;;;15.38;8.70;;;;;;;8.56;87.03;101339.91;5018003;28;20516;-42
2022/04/21 06:03:18;;;;;;;16.77;8.52;;;;;;;8.61;87.03;101342.16;5018505;28;20139;-44
2022/04/21 06:05:43;;;;;;;21.25;9.07;;;;;;;8.66;87.43;101336.44;5019396;28;20083;-45
2022/04/21 06:08:09;;;;;;;19.02;8.63;;;;;;;8.73;87.39;101337.56;5016735;28;20026;-42
2022/04/21 06:10:35;;;;;;;19.67;8.98;;;;;;;8.78;87.90;101336.16;5019611;28;20127;-41
2022/04/21 06:13:02;;;;;;;21.85;9.02;;;;;;;8.82;86.06;101331.41;5017954;28;20021;-43
2022/04/21 06:15:31;;;;;;;16.42;8.40;;;;;;;8.89;87.23;101329.03;5016948;28;20068;-41
2022/04/21 06:17:58;;;;;;;17.40;8.77;;;;;;;8.96;86.67;101330.16;5016074;28;20473;-45
2022/04/21 06:20:23;;;;;;;20.55;9.10;;;;;;;9.07;87.85;101324.72;5017886;28;20025;-44
2022/04/21 06:22:48;;;;;;;18.98;9.13;;;;;;;9.18;86.83;101331.72;5015922;28;20032;-41
2022/04/21 06:25:14;;;;;;;13.88;8.93;;;;;;;9.25;86.32;101330.19;5017657;28;20025;-41
2022/04/21 06:27:39;;;;;;;16.98;9.05;;;;;;;9.30;86.61;101321.75;5018185;28;20033;-45
2022/04/21 06:30:05;;;;;;;14.70;9.13;;;;;;;9.39;86.15;101330.75;5015696;28;20214;-40
2022/04/21 06:32:30;;;;;;;15.55;8.95;;;;;;;9.49;85.40;101326.25;5018963;28;20021;-41
2022/04/21 06:34:57;;;;;;;17.40;8.93;;;;;;;9.57;84.88;101326.34;5017367;28;20109;-44
2022/04/21 06:37:23;;;;;;;15.45;8.98;;;;;;;9.65;83.91;101321.16;5016990;28;20045;-40
2022/04/21 06:39:48;;;;;;;15.13;8.80;;;;;;;9.72;82.89;101321.41;5009752;28;20380;-42
2022/04/21 06:42:13;;;;;;;13.00;8.10;;;;;;;9.80;80.39;101320.72;5016248;28;20018;-41
2022/04/21 06:50:07;;;;;;;15.98;8.10;;;;;;;10.19;80.22;101309.91;5014445;28;20779;-41
2022/04/21 06:52:33;;;;;;;11.75;8.20;;;;;;;10.30;80.09;101316.88;5005883;28;20504;-44
2022/04/21 06:54:58;;;;;;;12.25;7.75;;;;;;;10.45;79.64;101323.44;5016686;28;20033;-42
2022/04/21 06:57:24;;;;;;;12.93;7.90;;;;;;;10.55;78.53;101313.53;5013743;28;20112;-51
2022/04/21 06:59:49;;;;;;;15.15;7.47;;;;;;;10.66;78.44;101312.50;5016832;28;20025;-42
2022/04/21 07:02:15;;;;;;;12.13;7.95;;;;;;;10.77;79.03;101314.94;5017988;28;20243;-42
2022/04/21 07:04:41;;;;;;;14.32;7.38;;;;;;;10.91;77.15;101313.63;5015828;28;20028;-43
2022/04/21 07:07:06;;;;;;;10.07;7.30;;;;;;;11.04;75.35;101315.06;5017058;28;20488;-41
2022/04/21 07:09:31;;;;;;;13.80;7.40;;;;;;;11.19;75.46;101310.84;5017338;28;20156;-41
2022/04/21 07:11:56;;;;;;;14.85;7.65;;;;;;;11.27;74.96;101315.41;5016691;28;20376;-42
2022/04/21 07:14:22;;;;;;;10.77;7.15;;;;;;;11.40;74.61;101313.19;5017215;28;20026;-43
2022/04/21 07:16:47;;;;;;;12.40;7.22;;;;;;;11.49;74.91;101317.63;5017589;28;20036;-43
2022/04/21 07:19:12;;;;;;;14.27;7.45;;;;;;;11.60;73.13;101321.03;5016079;28;20037;-42
2022/04/21 07:21:38;;;;;;;18.38;7.03;;;;;;;11.72;75.26;101320.63;5006898;28;20025;-41
2022/04/21 07:24:03;;;;;;;17.00;7.38;;;;;;;11.86;72.39;101323.72;4998315;28;20050;-44
2022/04/21 07:26:28;;;;;;;13.30;7.28;;;;;;;11.99;73.80;101315.31;5005961;28;20178;-44
2022/04/21 07:28:54;;;;;;;13.38;7.35;;;;;;;12.11;73.82;101330.09;5016237;28;20551;-40
2022/04/21 07:31:20;;;;;;;12.27;7.18;;;;;;;12.24;73.26;101330.50;5014518;28;20246;-43
2022/04/21 07:33:45;;;;;;;13.27;7.38;;;;;;;12.38;72.63;101336.25;5014753;28;20086;-43
2022/04/21 07:36:10;;;;;;;12.63;7.55;;;;;;;12.43;71.75;101334.75;5014124;28;20491;-42
2022/04/21 07:38:36;;;;;;;12.07;7.38;;;;;;;12.54;71.96;101336.28;5008195;28;20054;-43
2022/04/21 07:41:02;;;;;;;14.65;6.88;;;;;;;12.65;70.47;101335.19;5016668;28;20381;-44
2022/04/21 07:43:27;;;;;;;13.60;6.70;;;;;;;12.76;71.45;101326.81;5015485;28;20052;-41
2022/04/21 07:45:52;;;;;;;12.50;7.05;;;;;;;12.86;69.12;101329.34;5016628;28;20036;-41
2022/04/21 07:48:18;;;;;;;11.38;6.30;;;;;;;12.92;70.78;101325.19;5012962;28;20035;-43
2022/04/21 07:50:43;;;;;;;9.18;6.32;;;;;;;13.06;69.90;101324.53;5016571;28;20052;-42
2022/04/21 07:53:15;;;;;;;9.80;6.70;;;;;;;13.14;68.34;101323.72;5010446;28;20459;-41
2022/04/21 07:55:45;;;;;;;18.80;6.90;;;;;;;13.25;69.26;101326.91;5019157;28;20057;-41
2022/04/21 07:58:11;;;;;;;12.60;6.47;;;;;;;13.38;67.35;101325.59;4989717;28;20441;-42
2022/04/21 08:00:38;;;;;;;10.38;6.57;;;;;;;13.39;65.86;101328.13;5016030;28;20065;-42
2022/04/21 08:03:05;;;;;;;11.52;6.45;;;;;;;13.46;67.85;101328.28;5014112;28;20470;-41
2022/04/21 08:05:30;;;;;;;9.82;6.10;;;;;;;13.60;65.70;101326.78;5015809;28;20333;-43
2022/04/21 08:07:55;;;;;;;13.13;6.32;;;;;;;13.74;67.54;101326.06;5014388;28;20044;-42
2022/04/21 08:10:22;;;;;;;9.10;5.80;;;;;;;13.95;65.95;101332.75;5016273;28;20391;-42
2022/04/21 08:12:48;;;;;;;11.13;6.22;;;;;;;14.08;66.22;101329.53;5009142;28;20113;-43
2022/04/21 08:15:21;;;;;;;9.35;5.97;;;;;;;14.15;62.91;101333.19;4996656;28;20018;-43
2022/04/21 08:17:47;;;;;;;8.50;5.32;;;;;;;14.20;63.47;101335.38;5002909;28;20555;-42
2022/04/21 08:20:12;;;;;;;8.35;5.82;;;;;;;14.32;65.36;101328.59;5012672;28;20028;-41
2022/04/21 08:22:38;;;;;;;10.30;5.72;;;;;;;14.39;64.45;101326.06;5012882;28;20040;-45
2022/04/21 08:33:16;;;;;;;9.60;5.53;;;;;;;14.79;63.90;101330.44;5005298;28;20471;-45
2022/04/21 08:35:44;;;;;;;10.75;5.68;;;;;;;14.85;64.25;101334.25;5015623;28;20033;-45
2022/04/21 08:38:09;;;;;;;10.95;5.43;;;;;;;14.99;61.58;101340.75;5015197;28;20045;-47
2022/04/21 08:40:37;;;;;;;6.72;5.13;;;;;;;15.01;61.26;101331.47;5001046;28;20425;-42
2022/04/21 08:43:11;;;;;;;13.23;5.05;;;;;;;15.10;62.13;101335.78;5014182;28;20036;-44
2022/04/21 08:45:37;;;;;;;9.77;5.18;;;;;;;15.21;59.83;101333.69;5006328;28;20026;-43
2022/04/21 08:48:04;;;;;;;7.88;5.35;;;;;;;15.39;59.86;101331.50;5010426;28;20033;-47
2022/04/21 08:50:31;;;;;;;7.75;4.80;;;;;;;15.58;57.41;101329.34;5015762;28;20404;-44
2022/04/21 08:52:56;;;;;;;11.27;5.10;;;;;;;15.72;59.27;101323.16;5016276;28;20049;-44
2022/04/21 08:55:22;;;;;;;9.85;4.75;;;;;;;15.88;60.41;101322.16;5016269;28;20045;-44
2022/04/21 08:57:49;;;;;;;8.80;4.50;;;;;;;15.92;57.51;101315.41;5016139;28;20545;-45
2022/04/21 09:00:15;;;;;;;6.80;4.18;;;;;;;16.00;56.35;101318.03;5011747;28;20033;-43
2022/04/21 09:02:44;;;;;;;7.32;4.10;;;;;;;16.03;53.36;101314.94;5014426;28;20034;-44
2022/04/21 09:05:11;;;;;;;9.55;4.30;;;;;;;16.06;52.16;101318.31;5013893;28;20052;-45
2022/04/21 09:07:50;;;;;;;12.18;4.88;;;;;;;16.15;54.22;101318.00;5009572;28;20021;-46
2022/04/21 09:10:17;;;;;;;8.73;4.43;;;;;;;16.28;52.22;101313.84;5015624;28;20435;-44
2022/04/21 09:12:45;;;;;;;10.07;3.92;;;;;;;16.36;48.41;101311.88;5016602;28;20025;-45
2022/04/21 09:15:14;;;;;;;7.05;4.10;;;;;;;16.32;47.88;101307.84;5013447;28;20086;-44
2022/04/21 09:17:47;;;;;;;5.55;4.03;;;;;;;16.50;51.83;101320.94;5012068;28;20975;-44
2022/04/21 09:20:16;;;;;;;6.60;3.90;;;;;;;16.63;48.79;101317.56;5016302;28;20033;-46
2022/04/21 09:22:47;;;;;;;10.27;4.53;;;;;;;16.71;49.84;101316.63;5016281;28;20021;-47
2022/04/21 09:25:12;;;;;;;6.13;4.28;;;;;;;16.73;50.31;101311.88;5007400;28;20030;-46
2022/04/21 09:27:42;;;;;;;8.63;5.00;;;;;;;16.85;49.59;101304.97;5009807;28;20609;-45
2022/04/21 09:30:12;;;;;;;11.85;3.92;;;;;;;16.95;48.49;101296.56;5009489;28;20517;-44
2022/04/21 09:32:39;;;;;;;6.25;4.00;;;;;;;16.96;45.54;101300.94;5012704;28;20491;-47
2022/04/21 09:35:06;;;;;;;14.18;3.05;;;;;;;16.89;43.53;101291.97;5016507;28;20071;-47
2022/04/21 09:37:31;;;;;;;5.00;2.67;;;;;;;16.92;40.76;101295.13;5015115;28;20080;-46
2022/04/21 09:39:56;;;;;;;4.43;2.80;;;;;;;17.03;42.54;101295.63;5011642;28;20029;-44
2022/04/21 09:42:29;;;;;;;4.30;2.63;;;;;;;17.12;40.61;101292.63;5016124;28;20073;-47
2022/04/21 09:48:29;;;;;;;6.68;2.90;;;;;;;17.42;39.27;101303.25;5002040;28;20092;-43
2022/04/21 09:50:58;;;;;;;4.30;2.92;;;;;;;17.48;40.12;101298.91;5015684;28;20029;-46
2022/04/21 09:53:24;;;;;;;4.95;3.15;;;;;;;17.59;42.44;101301.09;5017148;28;20049;-44
2022/04/21 09:55:51;;;;;;;3.55;2.63;;;;;;;17.69;39.12;101296.16;5019893;28;20029;-46
2022/04/21 09:58:17;;;;;;;3.05;2.70;;;;;;;17.57;37.81;101284.25;5019005;28;20052;-46
2022/04/21 10:00:44;;;;;;;3.95;2.80;;;;;;;17.62;39.00;101280.97;5016241;28;20095;-45
2022/04/21 10:03:10;;;;;;;4.30;2.25;;;;;;;17.74;37.96;101287.47;4998095;28;20021;-43
2022/04/21 10:05:39;;;;;;;4.80;2.65;;;;;;;17.81;36.60;101280.25;5011819;28;20107;-44
2022/04/21 10:08:07;;;;;;;5.22;2.67;;;;;;;17.87;36.02;101282.19;5017926;28;20030;-45
2022/04/21 10:10:34;;;;;;;3.22;2.33;;;;;;;17.99;35.82;101278.91;5014371;28;20630;-46
2022/04/21 10:13:01;;;;;;;5.25;2.78;;;;;;;18.03;35.09;101272.91;5005479;28;20038;-44
2022/04/21 10:15:28;;;;;;;7.97;2.72;;;;;;;18.15;36.97;101270.47;4999334;28;20029;-45
2022/04/21 10:17:53;;;;;;;10.18;3.00;;;;;;;18.29;37.27;101268.66;5011992;28;20526;-46
2022/04/21 10:20:24;;;;;;;5.10;2.80;;;;;;;18.43;39.19;101261.44;5013841;28;20117;-45
2022/04/21 10:22:51;;;;;;;4.97;2.77;;;;;;;18.66;38.91;101262.97;5014923;28;20037;-43
2022/04/21 10:25:18;;;;;;;5.28;2.20;;;;;;;18.67;35.60;101260.06;5019227;28;20557;-45
2022/04/21 10:27:47;;;;;;;3.60;3.00;;;;;;;18.75;37.29;101267.97;5009895;28;20025;-43
2022/04/21 10:30:25;;;;;;;2.95;2.10;;;;;;;18.89;34.83;101260.75;4998831;28;20034;-44
2022/04/21 10:32:52;;;;;;;8.82;3.17;;;;;;;18.95;32.59;101256.38;5002980;28;20094;-44
2022/04/21 10:35:40;;;;;;;2.40;1.52;;;;;;;19.10;33.20;101261.59;5012865;28;20459;-44
2022/04/21 10:38:19;;;;;;;5.00;1.70;;;;;;;19.07;31.88;101252.00;5017251;28;20052;-44
2022/04/21 10:41:10;;;;;;;5.70;1.92;;;;;;;19.12;31.32;101254.09;5018987;28;20175;-44
2022/04/21 10:43:48;;;;;;;5.30;2.10;;;;;;;19.15;31.17;101242.88;5019954;28;20017;-45
2022/04/21 10:46:21;;;;;;;4.32;2.30;;;;;;;19.23;31.60;101249.94;5010985;28;20475;-44
2022/04/21 10:48:47;;;;;;;5.70;2.10;;;;;;;19.26;31.83;101250.34;5017534;28;20471;-44
2022/04/21 10:57:28;;;;;;;5.70;2.40;;;;;;;19.38;31.85;101240.56;4998936;28;20064;-42
2022/04/21 11:00:05;;;;;;;6.63;2.30;;;;;;;19.41;31.71;101239.28;5006177;28;20595;-43
2022/04/21 11:02:43;;;;;;;7.40;2.20;;;;;;;19.57;32.57;101248.88;5000507;28;20033;-43
2022/04/21 11:05:31;;;;;;;13.25;2.40;;;;;;;19.53;32.20;101234.06;5015264;28;20063;-44
2022/04/21 11:08:01;;;;;;;4.20;2.20;;;;;;;19.52;31.61;101230.53;5018080;28;20140;-43
2022/04/21 11:10:43;;;;;;;3.30;2.17;;;;;;;19.70;33.29;101234.44;5013347;28;20653;-44
2022/04/21 11:13:13;;;;;;;7.15;2.25;;;;;;;19.87;32.41;101226.72;5004025;28;20022;-47
2022/04/21 11:15:44;;;;;;;6.70;2.50;;;;;;;20.13;36.02;101239.38;5019587;28;20026;-44
2022/04/21 11:18:15;;;;;;;4.07;2.70;;;;;;;20.12;32.41;101235.81;5007519;28;20297;-45
2022/04/21 11:20:47;;;;;;;3.53;2.20;;;;;;;20.11;30.65;101225.16;5002540;28;20042;-42
2022/04/21 11:23:45;;;;;;;6.68;2.50;;;;;;;20.25;32.14;101223.25;5016290;28;20052;-43
2022/04/21 11:26:11;;;;;;;3.75;2.10;;;;;;;20.11;32.11;101219.75;5008231;28;20112;-46
2022/04/21 11:28:45;;;;;;;4.90;2.38;;;;;;;20.01;30.79;101203.97;5015968;28;20159;-42
2022/04/21 11:31:12;;;;;;;4.20;2.53;;;;;;;20.10;31.16;101216.22;5014153;28;20060;-46
2022/04/21 11:33:44;;;;;;;8.20;2.30;;;;;;;20.09;31.47;101209.13;5015946;28;20025;-43
2022/04/21 11:36:12;;;;;;;6.35;2.35;;;;;;;20.31;31.70;101196.09;5017321;28;20029;-44
2022/04/21 11:38:45;;;;;;;7.15;2.10;;;;;;;20.54;30.62;101196.59;5017257;28;20056;-44
2022/04/21 11:41:12;;;;;;;7.97;2.60;;;;;;;20.57;31.80;101194.28;5003385;28;20033;-45
2022/04/21 11:43:45;;;;;;;6.22;2.40;;;;;;;20.52;30.95;101182.38;5013878;28;20022;-43
2022/04/21 11:46:12;;;;;;;7.13;2.50;;;;;;;20.57;32.21;101183.41;5004852;28;20055;-42
2022/04/21 11:48:42;;;;;;;5.30;2.20;;;;;;;20.49;30.15;101184.50;5013195;28;20148;-44
2022/04/21 11:51:09;;;;;;;9.40;2.60;;;;;;;20.64;31.82;101181.50;5012612;28;20017;-44
2022/04/21 11:53:36;;;;;;;11.20;2.65;;;;;;;20.73;30.59;101178.53;5017539;28;20057;-43
2022/04/21 11:56:06;;;;;;;4.47;2.25;;;;;;;20.94;30.34;101177.31;5017396;28;20044;-43
2022/04/21 11:58:34;;;;;;;4.47;2.50;;;;;;;21.05;31.52;101188.28;5016070;28;20033;-43
2022/04/21 12:06:39;;;;;;;6.50;2.20;;;;;;;20.86;30.04;101165.69;5017385;28;20103;-45
2022/04/21 12:09:06;;;;;;;5.20;2.10;;;;;;;21.02;29.14;101172.41;5016671;28;20471;-44
2022/04/21 12:11:33;;;;;;;5.60;2.80;;;;;;;21.09;29.62;101172.38;5016329;28;20044;-48
2022/04/21 12:13:59;;;;;;;5.15;2.20;;;;;;;21.19;29.84;101171.88;5016616;28;20041;-46
2022/04/21 12:16:49;;;;;;;6.80;2.10;;;;;;;21.49;27.85;101168.47;5015680;28;20025;-45
2022/04/21 12:19:40;;;;;;;3.13;2.03;;;;;;;21.91;29.69;101166.72;5015465;28;20063;-44